createdAt,value
2019-06-01T00:02:09.024Z,33.90
2019-06-01T00:04:35.819Z,33.80
2019-06-01T00:07:02.604Z,33.80
2019-06-01T00:09:29.396Z,38.80
2019-06-01T00:11:56.294Z,40.80
2019-06-01T00:14:23.089Z,43.00
2019-06-01T00:16:50.379Z,43.70
2019-06-01T00:19:17.550Z,44.80
2019-06-01T00:21:45.443Z,45.80
2019-06-01T00:24:13.054Z,46.20
2019-06-01T00:26:41.570Z,46.00
2019-06-01T00:29:08.589Z,45.50
2019-06-01T00:31:35.387Z,45.10
2019-06-01T00:34:02.257Z,45.10
2019-06-01T00:36:29.039Z,46.10
2019-06-01T00:38:55.839Z,45.50
2019-06-01T00:41:22.797Z,45.30
2019-06-01T00:43:50.468Z,43.30
2019-06-01T00:46:17.478Z,41.80
2019-06-01T00:48:45.783Z,41.40
2019-06-01T00:51:13.259Z,40.60
2019-06-01T00:53:39.869Z,39.60
2019-06-01T00:56:06.757Z,38.00
2019-06-01T00:58:33.627Z,37.90
2019-06-01T01:01:00.425Z,38.20
2019-06-01T01:03:27.462Z,39.20
2019-06-01T01:05:54.829Z,38.30
2019-06-01T01:08:21.928Z,37.60
2019-06-01T01:10:49.116Z,36.90
2019-06-01T01:13:23.746Z,36.70
2019-06-01T01:15:51.401Z,36.10
2019-06-01T01:18:18.492Z,36.40
2019-06-01T01:20:45.939Z,36.00
2019-06-01T01:23:13.035Z,35.40
2019-06-01T01:25:39.914Z,35.50
2019-06-01T01:28:06.710Z,35.40
2019-06-01T01:30:34.413Z,34.90
2019-06-01T01:33:01.225Z,35.60
2019-06-01T01:35:28.053Z,35.60
2019-06-01T01:37:58.135Z,35.50
2019-06-01T01:40:26.503Z,35.90
2019-06-01T01:42:54.438Z,35.70
2019-06-01T01:45:22.498Z,36.50
2019-06-01T01:47:49.477Z,37.10
2019-06-01T01:50:17.692Z,37.10
2019-06-01T01:52:44.472Z,36.50
2019-06-01T01:55:11.966Z,36.10
2019-06-01T01:57:38.790Z,36.00
2019-06-01T02:00:11.749Z,35.80
2019-06-01T02:02:38.849Z,35.60
2019-06-01T02:05:07.695Z,35.70
2019-06-01T02:07:34.483Z,35.70
2019-06-01T02:10:01.920Z,35.80
2019-06-01T02:12:28.788Z,37.60
2019-06-01T02:14:55.631Z,40.20
2019-06-01T02:17:22.530Z,41.10
2019-06-01T02:19:49.404Z,43.80
2019-06-01T02:22:16.179Z,45.50
2019-06-01T02:24:43.048Z,46.30
2019-06-01T02:27:09.843Z,47.40
2019-06-01T02:29:36.652Z,48.20
2019-06-01T02:32:04.767Z,48.10
2019-06-01T02:34:32.175Z,47.50
2019-06-01T02:37:00.262Z,47.10
2019-06-01T02:39:27.721Z,46.70
2019-06-01T02:41:55.017Z,46.20
2019-06-01T02:44:22.438Z,46.30
2019-06-01T02:46:49.306Z,45.70
2019-06-01T02:49:16.133Z,45.40
2019-06-01T02:51:42.937Z,45.10
2019-06-01T02:54:09.849Z,45.70
2019-06-01T02:56:36.657Z,45.50
2019-06-01T02:59:04.433Z,44.80
2019-06-01T03:01:36.746Z,44.70
2019-06-01T03:04:08.050Z,44.50
2019-06-01T03:06:38.702Z,46.90
2019-06-01T03:09:10.387Z,46.10
2019-06-01T03:11:39.423Z,46.70
2019-06-01T03:14:09.544Z,47.90
2019-06-01T03:16:40.342Z,48.10
2019-06-01T03:19:09.149Z,48.10
2019-06-01T03:21:36.962Z,47.60
2019-06-01T03:24:08.214Z,47.90
2019-06-01T03:26:40.714Z,47.80
2019-06-01T03:29:14.920Z,48.00
2019-06-01T03:31:41.708Z,47.60
2019-06-01T03:34:10.732Z,47.50
2019-06-01T03:36:38.217Z,47.30
2019-06-01T03:39:06.733Z,46.50
2019-06-01T03:41:34.285Z,46.70
2019-06-01T03:44:02.564Z,46.60
2019-06-01T03:46:30.079Z,46.80
2019-06-01T03:48:56.964Z,46.40
2019-06-01T03:51:23.837Z,46.10
2019-06-01T03:53:50.646Z,46.60
2019-06-01T03:56:17.787Z,46.10
2019-06-01T03:58:44.603Z,45.80
2019-06-01T04:01:11.594Z,46.00
2019-06-01T04:03:38.895Z,46.50
2019-06-01T04:06:05.715Z,46.10
2019-06-01T04:08:32.498Z,46.30
2019-06-01T04:10:59.420Z,47.00
2019-06-01T04:13:26.221Z,47.40
2019-06-01T04:15:53.040Z,46.90
2019-06-01T04:18:20.275Z,47.50
2019-06-01T04:20:47.107Z,47.40
2019-06-01T04:23:13.947Z,47.60
2019-06-01T04:25:40.765Z,48.00
2019-06-01T04:28:13.613Z,47.30
2019-06-01T04:30:40.402Z,46.80
2019-06-01T04:33:07.210Z,45.50
2019-06-01T04:35:33.989Z,44.90
2019-06-01T04:38:00.979Z,44.90
2019-06-01T04:40:27.778Z,45.00
2019-06-01T04:42:54.732Z,45.30
2019-06-01T04:45:21.535Z,45.40
2019-06-01T04:47:48.339Z,45.60
2019-06-01T04:50:15.259Z,45.80
2019-06-01T04:52:42.478Z,46.70
2019-06-01T04:55:11.138Z,47.90
2019-06-01T04:57:37.954Z,47.80
2019-06-01T05:00:22.620Z,48.30
2019-06-01T05:02:38.052Z,49.00
2019-06-01T05:05:07.084Z,49.80
2019-06-01T05:07:34.033Z,50.30
2019-06-01T05:10:01.105Z,55.80
2019-06-01T05:12:27.918Z,54.50
2019-06-01T05:14:54.713Z,51.80
2019-06-01T05:17:21.546Z,52.40
2019-06-01T05:19:48.335Z,53.60
2019-06-01T05:22:15.290Z,53.00
2019-06-01T05:24:42.277Z,52.00
2019-06-01T05:27:09.158Z,53.40
2019-06-01T05:29:36.158Z,53.30
2019-06-01T05:32:03.069Z,53.80
2019-06-01T05:34:30.091Z,53.10
2019-06-01T05:36:56.880Z,53.40
2019-06-01T05:39:23.679Z,53.10
2019-06-01T05:41:50.478Z,51.80
2019-06-01T05:44:17.450Z,52.00
2019-06-01T05:46:44.180Z,51.30
2019-06-01T05:49:12.032Z,50.40
2019-06-01T05:51:39.984Z,49.50
2019-06-01T05:54:07.137Z,49.30
2019-06-01T05:56:34.031Z,50.90
2019-06-01T05:59:00.805Z,49.70
2019-06-01T06:01:27.627Z,49.20
2019-06-01T06:03:54.741Z,49.80
2019-06-01T06:06:22.107Z,49.30
2019-06-01T06:08:49.227Z,51.30
2019-06-01T06:11:16.989Z,52.30
2019-06-01T06:13:44.112Z,52.60
2019-06-01T06:16:11.660Z,53.10
2019-06-01T06:18:38.859Z,53.30
2019-06-01T06:21:05.667Z,53.60
2019-06-01T06:23:32.913Z,56.20
2019-06-01T06:26:00.003Z,56.80
2019-06-01T06:28:26.918Z,56.50
2019-06-01T06:30:54.013Z,56.00
2019-06-01T06:33:21.421Z,57.10
2019-06-01T06:35:48.407Z,59.30
2019-06-01T06:38:15.709Z,55.70
2019-06-01T06:40:42.576Z,56.00
2019-06-01T06:43:19.007Z,55.20
2019-06-01T06:45:38.336Z,55.40
2019-06-01T06:48:05.230Z,55.70
2019-06-01T06:50:32.041Z,55.60
2019-06-01T06:52:58.870Z,55.60
2019-06-01T06:55:26.133Z,54.50
2019-06-01T06:57:53.105Z,54.20
2019-06-01T07:00:20.618Z,55.50
2019-06-01T07:02:47.770Z,55.40
2019-06-01T07:05:14.565Z,54.80
2019-06-01T07:07:41.463Z,53.50
2019-06-01T07:10:08.444Z,52.90
2019-06-01T07:12:35.363Z,53.70
2019-06-01T07:15:03.666Z,53.30
2019-06-01T07:17:31.804Z,52.20
2019-06-01T07:19:58.773Z,52.90
2019-06-01T07:22:25.839Z,53.00
2019-06-01T07:24:53.301Z,52.50
2019-06-01T07:27:20.137Z,52.50
2019-06-01T07:29:47.045Z,52.10
2019-06-01T07:32:13.806Z,53.20
2019-06-01T07:34:42.782Z,52.50
2019-06-01T07:37:09.465Z,52.40
2019-06-01T07:39:36.374Z,51.60
2019-06-01T07:42:03.497Z,52.50
2019-06-01T07:44:30.485Z,52.30
2019-06-01T07:46:57.287Z,51.80
2019-06-01T07:49:24.972Z,51.50
2019-06-01T07:51:52.105Z,51.70
2019-06-01T07:54:20.254Z,52.00
2019-06-01T07:56:47.329Z,51.60
2019-06-01T07:59:14.257Z,52.10
2019-06-01T08:01:41.168Z,52.00
2019-06-01T08:04:07.975Z,51.80
2019-06-01T08:06:34.974Z,51.90
2019-06-01T08:09:01.760Z,51.10
2019-06-01T08:11:32.625Z,50.90
2019-06-01T08:13:58.046Z,50.70
2019-06-01T08:16:25.935Z,51.10
2019-06-01T08:18:53.375Z,50.60
2019-06-01T08:21:21.792Z,51.00
2019-06-01T08:23:48.644Z,50.10
2019-06-01T08:26:15.505Z,49.00
2019-06-01T08:28:42.463Z,49.40
2019-06-01T08:31:09.245Z,49.40
2019-06-01T08:33:36.437Z,48.60
2019-06-01T08:36:03.590Z,48.30
2019-06-01T08:38:31.671Z,47.40
2019-06-01T08:40:58.682Z,47.40
2019-06-01T08:43:25.573Z,46.50
2019-06-01T08:45:52.356Z,47.10
2019-06-01T08:48:19.193Z,46.40
2019-06-01T08:50:46.404Z,46.50
2019-06-01T08:53:13.810Z,46.30
2019-06-01T08:55:40.699Z,46.30
2019-06-01T08:58:07.613Z,46.50
2019-06-01T09:00:34.759Z,46.70
2019-06-01T09:03:01.807Z,46.50
2019-06-01T09:05:30.038Z,46.30
2019-06-01T09:07:57.502Z,46.50
2019-06-01T09:10:25.240Z,46.50
2019-06-01T09:12:52.651Z,46.10
2019-06-01T09:15:19.539Z,46.00
2019-06-01T09:17:46.445Z,45.80
2019-06-01T09:20:14.508Z,45.50
2019-06-01T09:22:41.476Z,45.80
2019-06-01T09:25:08.813Z,45.10
2019-06-01T09:27:36.133Z,44.10
2019-06-01T09:30:06.550Z,44.90
2019-06-01T09:32:34.360Z,44.60
2019-06-01T09:35:01.397Z,44.60
2019-06-01T09:37:28.363Z,43.90
2019-06-01T09:39:55.241Z,43.60
2019-06-01T09:42:22.296Z,43.90
2019-06-01T09:44:49.081Z,44.10
2019-06-01T09:47:15.907Z,44.00
2019-06-01T09:49:42.885Z,44.20
2019-06-01T09:52:12.539Z,44.40
2019-06-01T09:54:38.383Z,45.00
2019-06-01T09:57:05.192Z,44.70
2019-06-01T09:59:32.056Z,45.10
2019-06-01T10:01:58.866Z,45.20
2019-06-01T10:04:25.915Z,44.10
2019-06-01T10:06:52.706Z,44.30
2019-06-01T10:09:19.492Z,45.20
2019-06-01T10:11:46.411Z,44.40
2019-06-01T10:14:13.225Z,45.00
2019-06-01T10:16:40.013Z,44.70
2019-06-01T10:19:06.914Z,44.30
2019-06-01T10:21:33.995Z,43.20
2019-06-01T10:24:01.244Z,44.10
2019-06-01T10:26:28.406Z,44.10
2019-06-01T10:28:55.417Z,44.00
2019-06-01T10:31:22.220Z,44.00
2019-06-01T10:33:51.493Z,44.40
2019-06-01T10:36:21.022Z,43.70
2019-06-01T10:38:47.503Z,43.90
2019-06-01T10:41:14.684Z,41.10
2019-06-01T10:43:41.790Z,42.20
2019-06-01T10:46:08.903Z,42.50
2019-06-01T10:48:36.149Z,41.50
2019-06-01T10:51:03.597Z,42.40
2019-06-01T10:53:30.388Z,41.40
2019-06-01T10:55:57.570Z,41.60
2019-06-01T10:58:24.350Z,42.10
2019-06-01T11:00:51.540Z,42.70
2019-06-01T11:03:19.156Z,42.40
2019-06-01T11:05:46.257Z,41.30
2019-06-01T11:08:13.039Z,41.40
2019-06-01T11:10:40.973Z,41.60
2019-06-01T11:13:07.984Z,40.80
2019-06-01T11:15:35.106Z,41.30
2019-06-01T11:18:02.108Z,41.60
2019-06-01T11:20:28.904Z,42.10
2019-06-01T11:22:56.014Z,42.50
2019-06-01T11:25:23.181Z,42.50
2019-06-01T11:27:49.956Z,42.30
2019-06-01T11:30:19.464Z,42.10
2019-06-01T11:32:46.559Z,40.40
2019-06-01T11:35:13.450Z,39.90
2019-06-01T11:37:40.505Z,40.60
2019-06-01T11:40:08.314Z,40.50
2019-06-01T11:42:35.183Z,40.00
2019-06-01T11:45:05.507Z,39.50
2019-06-01T11:47:32.364Z,39.00
2019-06-01T11:49:59.153Z,38.30
2019-06-01T11:52:29.231Z,37.60
2019-06-01T11:54:56.546Z,37.20
2019-06-01T11:57:23.497Z,37.80
2019-06-01T11:59:50.180Z,36.90
2019-06-01T12:02:17.045Z,37.30
2019-06-01T12:04:44.138Z,36.80
2019-06-01T12:07:17.621Z,37.30
2019-06-01T12:09:40.023Z,36.90
2019-06-01T12:12:06.954Z,37.00
2019-06-01T12:14:33.742Z,36.90
2019-06-01T12:17:00.819Z,36.90
2019-06-01T12:19:27.638Z,35.10
2019-06-01T12:21:54.427Z,34.50
2019-06-01T12:24:25.439Z,35.40
2019-06-01T12:26:49.935Z,34.90
2019-06-01T12:29:16.762Z,34.60
2019-06-01T12:31:43.839Z,34.00
2019-06-01T12:34:10.763Z,34.90
2019-06-01T12:36:39.386Z,34.70
2019-06-01T12:39:07.652Z,32.50
2019-06-01T12:41:34.434Z,34.10
2019-06-01T12:44:07.369Z,34.90
2019-06-01T12:46:34.466Z,34.60
2019-06-01T12:49:01.253Z,34.80
2019-06-01T12:51:28.070Z,34.60
2019-06-01T12:53:55.113Z,33.60
2019-06-01T12:56:21.978Z,33.90
2019-06-01T12:58:49.085Z,34.30
2019-06-01T13:01:16.181Z,33.90
2019-06-01T13:03:43.158Z,33.50
2019-06-01T13:06:09.994Z,33.70
2019-06-01T13:08:37.200Z,32.60
2019-06-01T13:11:04.024Z,32.80
2019-06-01T13:13:30.720Z,33.40
2019-06-01T13:15:57.643Z,32.80
2019-06-01T13:18:24.493Z,32.20
2019-06-01T13:20:51.671Z,30.60
2019-06-01T13:23:18.977Z,31.60
2019-06-01T13:25:45.806Z,31.00
2019-06-01T13:28:12.619Z,31.00
2019-06-01T13:30:39.568Z,31.60
2019-06-01T13:33:06.369Z,30.10
2019-06-01T13:35:33.480Z,31.00
2019-06-01T13:38:11.823Z,29.00
2019-06-01T13:40:29.664Z,29.70
2019-06-01T13:42:56.803Z,28.40
2019-06-01T13:45:23.982Z,26.90
2019-06-01T13:47:51.867Z,26.80
2019-06-01T13:50:19.388Z,26.40
2019-06-01T13:52:46.381Z,26.70
2019-06-01T13:55:13.570Z,28.10
2019-06-01T13:57:40.352Z,29.20
2019-06-01T14:00:08.809Z,29.10
2019-06-01T14:02:35.796Z,28.00
2019-06-01T14:05:05.366Z,28.80
2019-06-01T14:07:32.665Z,29.70
2019-06-01T14:10:01.443Z,28.20
2019-06-01T14:12:28.386Z,28.30
2019-06-01T14:14:55.682Z,27.60
2019-06-01T14:17:23.227Z,27.80
2019-06-01T14:19:50.139Z,27.50
2019-06-01T14:22:17.485Z,27.00
2019-06-01T14:24:54.319Z,26.90
2019-06-01T14:27:14.916Z,27.70
2019-06-01T14:29:41.975Z,27.50
2019-06-01T14:32:08.994Z,27.50
2019-06-01T14:34:36.320Z,27.40
2019-06-01T14:37:03.544Z,25.90
2019-06-01T14:39:30.639Z,26.50
2019-06-01T14:41:57.722Z,26.30
2019-06-01T14:44:25.155Z,26.20
2019-06-01T14:47:01.365Z,24.90
2019-06-01T14:49:20.873Z,26.00
2019-06-01T14:51:47.868Z,26.50
2019-06-01T14:54:14.655Z,25.60
2019-06-01T14:56:41.451Z,25.80
2019-06-01T14:59:08.614Z,26.70
2019-06-01T15:01:35.396Z,25.30
2019-06-01T15:04:02.269Z,25.30
2019-06-01T15:06:29.119Z,24.70
2019-06-01T15:09:15.355Z,24.30
2019-06-01T15:11:24.865Z,25.00
2019-06-01T15:13:52.333Z,24.20
2019-06-01T15:16:19.544Z,23.40
2019-06-01T15:18:46.592Z,23.70
2019-06-01T15:21:14.142Z,24.00
2019-06-01T15:23:40.931Z,24.50
2019-06-01T15:26:07.746Z,24.40
2019-06-01T15:28:34.792Z,24.40
2019-06-01T15:31:01.765Z,24.80
2019-06-01T15:33:28.589Z,23.10
2019-06-01T15:35:55.953Z,24.10
2019-06-01T15:38:22.957Z,23.30
2019-06-01T15:40:49.754Z,23.50
2019-06-01T15:43:17.005Z,23.20
2019-06-01T15:45:43.829Z,22.50
2019-06-01T15:48:10.734Z,21.00
2019-06-01T15:50:38.185Z,22.00
2019-06-01T15:53:05.019Z,21.60
2019-06-01T15:55:32.403Z,22.20
2019-06-01T15:58:00.697Z,21.00
2019-06-01T16:00:27.582Z,21.70
2019-06-01T16:02:54.865Z,21.60
2019-06-01T16:05:21.699Z,21.30
2019-06-01T16:07:48.612Z,20.30
2019-06-01T16:10:15.395Z,19.60
2019-06-01T16:12:42.337Z,19.70
2019-06-01T16:15:10.227Z,17.40
2019-06-01T16:17:37.013Z,19.90
2019-06-01T16:20:07.924Z,19.60
2019-06-01T16:22:34.931Z,19.00
2019-06-01T16:25:02.564Z,20.70
2019-06-01T16:27:29.664Z,20.10
2019-06-01T16:29:56.863Z,20.70
2019-06-01T16:32:23.890Z,20.90
2019-06-01T16:34:50.696Z,20.30
2019-06-01T16:37:17.495Z,17.60
2019-06-01T16:39:58.363Z,19.90
2019-06-01T16:42:13.229Z,17.90
2019-06-01T16:44:40.081Z,16.70
2019-06-01T16:47:07.168Z,17.10
2019-06-01T16:49:34.020Z,18.30
2019-06-01T16:52:01.316Z,18.40
2019-06-01T16:54:28.558Z,19.40
2019-06-01T16:56:55.918Z,18.30
2019-06-01T16:59:23.431Z,18.20
2019-06-01T17:01:50.221Z,17.80
2019-06-01T17:04:17.187Z,17.70
2019-06-01T17:06:44.772Z,19.00
2019-06-01T17:09:11.761Z,17.50
2019-06-01T17:11:38.899Z,17.60
2019-06-01T17:14:06.905Z,17.20
2019-06-01T17:16:34.094Z,16.70
2019-06-01T17:19:01.075Z,16.40
2019-06-01T17:21:29.740Z,15.70
2019-06-01T17:23:57.455Z,16.30
2019-06-01T17:26:24.588Z,15.70
2019-06-01T17:28:51.373Z,16.40
2019-06-01T17:31:18.170Z,16.10
2019-06-01T17:33:45.337Z,15.80
2019-06-01T17:36:12.130Z,16.20
2019-06-01T17:38:39.342Z,16.20
2019-06-01T17:41:06.327Z,16.50
2019-06-01T17:43:33.665Z,17.70
2019-06-01T17:46:00.844Z,17.90
2019-06-01T17:48:27.659Z,17.90
2019-06-01T17:50:54.719Z,16.90
2019-06-01T17:53:21.536Z,18.20
2019-06-01T17:55:48.455Z,19.40
2019-06-01T17:58:16.012Z,17.50
2019-06-01T18:00:43.196Z,19.30
2019-06-01T18:03:12.095Z,18.90
2019-06-01T18:05:39.135Z,18.80
2019-06-01T18:08:06.328Z,19.90
2019-06-01T18:10:50.223Z,20.60
2019-06-01T18:13:06.213Z,20.00
2019-06-01T18:15:33.258Z,19.80
2019-06-01T18:18:02.208Z,18.80
2019-06-01T18:20:29.759Z,18.70
2019-06-01T18:22:56.646Z,19.50
2019-06-01T18:25:26.944Z,19.10
2019-06-01T18:27:54.509Z,19.80
2019-06-01T18:30:24.016Z,19.00
2019-06-01T18:32:53.338Z,19.30
2019-06-01T18:35:20.166Z,19.40
2019-06-01T18:37:46.966Z,20.70
2019-06-01T18:40:16.791Z,19.80
2019-06-01T18:42:47.418Z,20.10
2019-06-01T18:45:15.367Z,21.30
2019-06-01T18:47:42.211Z,24.00
2019-06-01T18:50:10.029Z,23.00
2019-06-01T18:52:38.336Z,21.80
2019-06-01T18:55:06.528Z,21.70
2019-06-01T18:57:38.501Z,20.90
2019-06-01T19:00:10.158Z,20.90
2019-06-01T19:02:35.781Z,21.80
2019-06-01T19:05:09.047Z,23.90
2019-06-01T19:07:36.233Z,22.10
2019-06-01T19:10:07.314Z,24.60
2019-06-01T19:12:34.742Z,23.30
2019-06-01T19:15:01.564Z,22.50
2019-06-01T19:17:28.776Z,23.20
2019-06-01T19:19:55.961Z,24.40
2019-06-01T19:22:22.755Z,24.80
2019-06-01T19:24:49.632Z,24.60
2019-06-01T19:27:17.099Z,24.90
2019-06-01T19:29:44.094Z,25.00
2019-06-01T19:32:11.415Z,25.50
2019-06-01T19:34:38.205Z,25.80
2019-06-01T19:37:05.214Z,26.00
2019-06-01T19:39:32.470Z,26.10
2019-06-01T19:41:59.785Z,26.40
2019-06-01T19:44:27.713Z,26.80
2019-06-01T19:46:54.528Z,26.90
2019-06-01T19:49:21.808Z,26.90
2019-06-01T19:51:48.627Z,26.70
2019-06-01T19:54:16.872Z,27.30
2019-06-01T19:56:44.150Z,27.40
2019-06-01T19:59:11.801Z,27.30
2019-06-01T20:01:38.890Z,27.60
2019-06-01T20:04:06.054Z,27.90
2019-06-01T20:06:32.858Z,27.50
2019-06-01T20:08:59.738Z,27.80
2019-06-01T20:11:26.642Z,27.80
2019-06-01T20:13:53.890Z,27.90
2019-06-01T20:16:21.216Z,27.20
2019-06-01T20:18:48.014Z,27.40
2019-06-01T20:21:15.856Z,27.70
2019-06-01T20:23:42.961Z,27.70
2019-06-01T20:26:09.758Z,27.70
2019-06-01T20:28:37.277Z,27.50
2019-06-01T20:31:04.075Z,27.70
2019-06-01T20:33:31.202Z,27.40
2019-06-01T20:35:58.062Z,27.40
2019-06-01T20:38:24.864Z,27.30
2019-06-01T20:40:52.080Z,28.90
2019-06-01T20:43:18.914Z,27.50
2019-06-01T20:45:45.910Z,27.80
2019-06-01T20:48:13.345Z,27.40
2019-06-01T20:50:41.789Z,27.40
2019-06-01T20:53:08.614Z,27.40
2019-06-01T20:55:35.429Z,27.60
2019-06-01T20:58:02.717Z,26.90
2019-06-01T21:00:31.954Z,26.30
2019-06-01T21:02:58.694Z,26.30
2019-06-01T21:05:25.710Z,26.70
2019-06-01T21:07:56.807Z,27.00
2019-06-01T21:10:22.316Z,26.60
2019-06-01T21:12:49.236Z,26.70
2019-06-01T21:15:17.315Z,27.10
2019-06-01T21:17:44.358Z,26.90
2019-06-01T21:20:12.386Z,26.80
2019-06-01T21:22:39.340Z,26.50
2019-06-01T21:25:06.743Z,26.30
2019-06-01T21:27:33.523Z,27.00
2019-06-01T21:30:00.559Z,25.90
2019-06-01T21:32:27.372Z,26.20
2019-06-01T21:34:54.056Z,26.50
2019-06-01T21:37:21.624Z,26.70
2019-06-01T21:39:48.702Z,26.60
2019-06-01T21:42:15.610Z,26.80
2019-06-01T21:44:42.422Z,26.30
2019-06-01T21:47:09.199Z,26.20
2019-06-01T21:49:35.993Z,26.50
2019-06-01T21:52:03.341Z,26.60
2019-06-01T21:54:30.493Z,26.80
2019-06-01T21:56:57.310Z,26.70
2019-06-01T21:59:24.914Z,27.10
2019-06-01T22:01:51.838Z,26.70
2019-06-01T22:04:18.765Z,27.20
2019-06-01T22:06:46.548Z,27.10
2019-06-01T22:09:13.611Z,27.30
2019-06-01T22:11:40.283Z,27.50
2019-06-01T22:14:07.104Z,27.40
2019-06-01T22:16:34.039Z,27.40
2019-06-01T22:19:00.825Z,27.50
2019-06-01T22:21:27.970Z,27.90
2019-06-01T22:23:54.980Z,27.90
2019-06-01T22:26:22.117Z,28.10
2019-06-01T22:28:49.010Z,28.40
2019-06-01T22:31:15.825Z,28.40
2019-06-01T22:33:43.147Z,28.30
2019-06-01T22:36:10.009Z,28.30
2019-06-01T22:38:37.434Z,28.40
2019-06-01T22:41:04.274Z,28.40
2019-06-01T22:43:45.797Z,28.50
2019-06-01T22:45:59.881Z,28.60
2019-06-01T22:48:27.273Z,28.60
2019-06-01T22:50:54.191Z,28.80
2019-06-01T22:53:22.011Z,28.80
2019-06-01T22:55:49.129Z,29.80
2019-06-01T22:58:16.015Z,29.50
2019-06-01T23:00:43.012Z,29.40
2019-06-01T23:03:09.868Z,29.20
2019-06-01T23:05:37.195Z,29.00
2019-06-01T23:08:04.333Z,29.10
2019-06-01T23:10:35.261Z,29.10
2019-06-01T23:13:00.213Z,29.20
2019-06-01T23:15:27.924Z,29.20
2019-06-01T23:17:55.103Z,28.70
2019-06-01T23:20:22.191Z,28.70
2019-06-01T23:22:48.994Z,28.80
2019-06-01T23:25:16.057Z,28.80
2019-06-01T23:27:42.948Z,28.70
2019-06-01T23:30:09.840Z,28.70
2019-06-01T23:32:36.656Z,28.70
2019-06-01T23:35:05.159Z,28.80
2019-06-01T23:37:32.928Z,29.00
2019-06-01T23:39:59.920Z,30.40
2019-06-01T23:42:26.838Z,29.40
2019-06-01T23:44:53.837Z,31.10
2019-06-01T23:47:20.767Z,29.50
2019-06-01T23:49:47.574Z,31.10
2019-06-01T23:52:14.379Z,33.00
2019-06-01T23:54:41.175Z,35.00
2019-06-01T23:57:08.525Z,37.50
2019-06-01T23:59:35.324Z,37.60
